Time;durP1;ratioP1;P1;durP2;ratioP2;P2;SDS_P1;SDS_P2;PMS_P1;PMS_P2;Temp;Humidity;BMP_temperature;BMP_pressure;BME280_temperature;BME280_humidity;BME280_pressure;Samples;Min_cycle;Max_cycle;Signal;HPM_P1;HPM_P2
2023/08/06 00:00:25;;;;;;;17.63;12.15;;;;;;;;;;5080363;28;20507;-58
2023/08/06 00:02:51;;;;;;;16.15;12.15;;;;;;;;;;5079490;28;20040;-59
2023/08/06 00:05:18;;;;;;;16.00;11.35;;;;;;;;;;5081649;28;20077;-58
2023/08/06 00:07:45;;;;;;;19.48;13.40;;;;;;;;;;5082803;28;20129;-59
2023/08/06 00:10:11;;;;;;;17.88;13.10;;;;;;;;;;5082318;28;20040;-59
2023/08/06 00:12:38;;;;;;;17.55;12.40;;;;;;;;;;5086218;28;20134;-59
2023/08/06 00:15:04;;;;;;;18.73;12.73;;;;;;;;;;5087707;28;20032;-59
2023/08/06 00:17:30;;;;;;;15.43;11.52;;;;;;;;;;5080883;28;20048;-58
2023/08/06 00:19:56;;;;;;;15.07;11.48;;;;;;;;;;5090214;28;20063;-59
2023/08/06 00:22:23;;;;;;;16.13;11.45;;;;;;;;;;5083258;28;20055;-59
2023/08/06 00:24:49;;;;;;;18.55;12.60;;;;;;;;;;5089529;28;20132;-59
2023/08/06 00:27:15;;;;;;;17.27;11.70;;;;;;;;;;5083607;28;20134;-59
2023/08/06 00:29:41;;;;;;;17.65;12.02;;;;;;;;;;5092926;28;20467;-59
2023/08/06 00:32:07;;;;;;;14.60;10.43;;;;;;;;;;5085087;28;20047;-59
2023/08/06 00:34:34;;;;;;;15.35;11.23;;;;;;;;;;5083321;28;20123;-59
2023/08/06 00:37:00;;;;;;;16.65;10.80;;;;;;;;;;5080728;28;20378;-58
2023/08/06 00:39:26;;;;;;;19.88;11.32;;;;;;;;;;5083543;28;20088;-59
2023/08/06 00:41:52;;;;;;;15.75;10.63;;;;;;;;;;5082839;28;20452;-59
2023/08/06 00:44:18;;;;;;;13.65;10.07;;;;;;;;;;5086762;28;20496;-59
2023/08/06 00:46:45;;;;;;;16.45;10.57;;;;;;;;;;5084097;28;20028;-59
2023/08/06 00:49:11;;;;;;;14.20;10.18;;;;;;;;;;5083297;28;20170;-59
2023/08/06 00:51:37;;;;;;;15.80;10.40;;;;;;;;;;5083775;28;20089;-59
2023/08/06 00:54:04;;;;;;;23.90;11.35;;;;;;;;;;5082989;28;20466;-59
2023/08/06 00:56:30;;;;;;;18.73;11.80;;;;;;;;;;5086867;28;20040;-59
2023/08/06 00:58:56;;;;;;;16.80;11.68;;;;;;;;;;5084844;28;20055;-59
2023/08/06 01:01:22;;;;;;;16.75;10.70;;;;;;;;;;5084869;28;20048;-59
2023/08/06 01:03:49;;;;;;;17.17;10.38;;;;;;;;;;5080765;28;20131;-59
2023/08/06 01:06:18;;;;;;;15.15;11.13;;;;;;;;;;5084004;28;20048;-59
2023/08/06 01:08:52;;;;;;;15.90;11.38;;;;;;;;;;5082645;28;20050;-59
2023/08/06 01:11:33;;;;;;;17.67;11.35;;;;;;;;;;5082458;28;20048;-59
2023/08/06 01:14:26;;;;;;;16.23;10.70;;;;;;;;;;5083401;28;20044;-59
2023/08/06 01:16:52;;;;;;;15.88;11.20;;;;;;;;;;5075682;28;20433;-59
2023/08/06 01:19:19;;;;;;;15.85;11.18;;;;;;;;;;5087374;28;20160;-59
2023/08/06 01:21:45;;;;;;;17.08;11.52;;;;;;;;;;5082938;28;20400;-59
2023/08/06 01:24:12;;;;;;;18.88;11.80;;;;;;;;;;5088614;28;20044;-59
2023/08/06 01:26:51;;;;;;;19.42;10.98;;;;;;;;;;5090513;28;20042;-59
2023/08/06 01:29:20;;;;;;;19.10;12.75;;;;;;;;;;5091715;28;20071;-59
2023/08/06 01:31:48;;;;;;;16.73;12.00;;;;;;;;;;5088447;28;20194;-59
2023/08/06 01:34:18;;;;;;;19.83;12.40;;;;;;;;;;5085596;28;20115;-59
2023/08/06 01:36:44;;;;;;;20.40;11.65;;;;;;;;;;5088295;28;20048;-59
2023/08/06 01:39:10;;;;;;;17.20;11.95;;;;;;;;;;5090380;28;20094;-59
2023/08/06 01:41:37;;;;;;;17.63;12.00;;;;;;;;;;5088733;28;20088;-59
2023/08/06 01:44:03;;;;;;;17.00;13.13;;;;;;;;;;5088597;28;20499;-59
2023/08/06 01:46:29;;;;;;;19.45;13.20;;;;;;;;;;5086579;28;20043;-59
2023/08/06 01:48:55;;;;;;;21.73;13.15;;;;;;;;;;5089069;28;20478;-59
2023/08/06 01:51:21;;;;;;;20.08;12.23;;;;;;;;;;5089926;28;20048;-59
2023/08/06 01:53:48;;;;;;;18.23;12.73;;;;;;;;;;5088500;28;20063;-59
2023/08/06 01:56:14;;;;;;;20.30;13.07;;;;;;;;;;5089974;28;20147;-59
2023/08/06 01:58:40;;;;;;;16.88;12.75;;;;;;;;;;5089169;28;20150;-59
2023/08/06 02:01:06;;;;;;;21.15;13.13;;;;;;;;;;5083784;28;20048;-59
2023/08/06 02:03:32;;;;;;;17.42;12.00;;;;;;;;;;5088351;28;20435;-59
2023/08/06 02:05:58;;;;;;;18.27;13.05;;;;;;;;;;5089363;28;20039;-59
2023/08/06 02:08:25;;;;;;;19.30;12.30;;;;;;;;;;5087675;28;20105;-59
2023/08/06 02:10:51;;;;;;;17.45;11.90;;;;;;;;;;5088755;28;20097;-59
2023/08/06 02:13:17;;;;;;;20.25;12.27;;;;;;;;;;5086854;28;20054;-59
2023/08/06 02:15:44;;;;;;;17.52;12.60;;;;;;;;;;5088916;28;20051;-59
2023/08/06 02:18:10;;;;;;;17.65;12.13;;;;;;;;;;5089191;28;20121;-59
2023/08/06 02:20:36;;;;;;;19.20;12.60;;;;;;;;;;5087490;28;20066;-58
2023/08/06 02:23:03;;;;;;;17.50;11.80;;;;;;;;;;5090022;28;20437;-59
2023/08/06 02:25:29;;;;;;;17.92;10.77;;;;;;;;;;5087459;28;20118;-59
2023/08/06 02:27:55;;;;;;;17.50;11.85;;;;;;;;;;5087179;28;20052;-59
2023/08/06 02:30:21;;;;;;;15.65;10.60;;;;;;;;;;5085176;28;20039;-58
2023/08/06 02:32:47;;;;;;;15.80;10.80;;;;;;;;;;5084566;28;20048;-58
2023/08/06 02:35:14;;;;;;;15.48;10.55;;;;;;;;;;5084142;28;20135;-59
2023/08/06 02:37:40;;;;;;;18.63;11.32;;;;;;;;;;5083321;28;20465;-59
2023/08/06 02:40:06;;;;;;;17.40;10.32;;;;;;;;;;5081472;28;20040;-59
2023/08/06 02:42:32;;;;;;;20.42;11.13;;;;;;;;;;5080693;28;20131;-59
2023/08/06 02:44:58;;;;;;;15.25;10.25;;;;;;;;;;5081160;28;20111;-59
2023/08/06 02:47:25;;;;;;;17.25;10.93;;;;;;;;;;5086841;28;20129;-58
2023/08/06 02:49:51;;;;;;;14.10;10.40;;;;;;;;;;5100086;28;20145;-58
2023/08/06 02:52:17;;;;;;;17.92;10.32;;;;;;;;;;5083465;28;20071;-58
2023/08/06 02:54:44;;;;;;;14.93;9.98;;;;;;;;;;5084862;28;20048;-58
2023/08/06 02:57:10;;;;;;;15.80;9.93;;;;;;;;;;5080692;28;20131;-59
2023/08/06 02:59:36;;;;;;;16.92;11.45;;;;;;;;;;5081037;28;20130;-59
2023/08/06 03:02:02;;;;;;;17.45;11.98;;;;;;;;;;5080728;28;20043;-59
2023/08/06 03:04:28;;;;;;;17.67;12.05;;;;;;;;;;5084623;28;20044;-59
2023/08/06 03:06:54;;;;;;;19.77;12.70;;;;;;;;;;5082165;28;20119;-59
2023/08/06 03:09:21;;;;;;;18.77;12.25;;;;;;;;;;5083985;28;20050;-59
2023/08/06 03:11:47;;;;;;;20.58;12.70;;;;;;;;;;5084040;28;20167;-58
2023/08/06 03:14:13;;;;;;;22.52;14.02;;;;;;;;;;5087098;28;20047;-58
2023/08/06 03:16:42;;;;;;;15.45;12.18;;;;;;;;;;5090256;28;20194;-59
2023/08/06 03:19:08;;;;;;;20.17;12.98;;;;;;;;;;5085754;28;20040;-58
2023/08/06 03:21:34;;;;;;;21.65;12.95;;;;;;;;;;5081129;28;20480;-59
2023/08/06 03:24:01;;;;;;;18.65;12.63;;;;;;;;;;5085970;28;20039;-59
2023/08/06 03:26:27;;;;;;;18.33;13.73;;;;;;;;;;5087762;28;20536;-59
2023/08/06 03:28:53;;;;;;;18.13;13.18;;;;;;;;;;5088957;28;20070;-59
2023/08/06 03:31:19;;;;;;;20.15;12.95;;;;;;;;;;5088231;28;20124;-59
2023/08/06 03:33:45;;;;;;;17.35;13.02;;;;;;;;;;5088897;28;20055;-59
2023/08/06 03:36:11;;;;;;;19.58;13.55;;;;;;;;;;5088428;28;20036;-59
2023/08/06 03:38:38;;;;;;;21.50;12.82;;;;;;;;;;5088344;28;20043;-59
2023/08/06 03:41:04;;;;;;;19.27;11.88;;;;;;;;;;5086769;28;20055;-58
2023/08/06 03:43:33;;;;;;;19.70;12.48;;;;;;;;;;5088723;28;20074;-58
2023/08/06 03:45:59;;;;;;;19.92;12.85;;;;;;;;;;5079229;28;20125;-58
2023/08/06 03:48:26;;;;;;;21.80;13.13;;;;;;;;;;5081522;28;20176;-59
2023/08/06 03:50:52;;;;;;;19.25;12.80;;;;;;;;;;5087722;28;20044;-59
2023/08/06 03:53:18;;;;;;;20.48;13.18;;;;;;;;;;5085394;28;20052;-58
2023/08/06 03:55:44;;;;;;;20.10;13.30;;;;;;;;;;5087265;28;20456;-59
2023/08/06 03:58:10;;;;;;;18.98;12.98;;;;;;;;;;5079777;28;20036;-58
2023/08/06 04:00:37;;;;;;;24.98;13.23;;;;;;;;;;5085832;28;20070;-58
2023/08/06 04:03:03;;;;;;;26.70;13.50;;;;;;;;;;5079452;28;20053;-59
2023/08/06 04:05:32;;;;;;;18.98;13.45;;;;;;;;;;5089314;28;20119;-58
2023/08/06 04:07:59;;;;;;;21.23;13.18;;;;;;;;;;5091529;28;20400;-59
2023/08/06 04:10:25;;;;;;;20.70;14.18;;;;;;;;;;5092041;28;20545;-59
2023/08/06 04:12:52;;;;;;;22.10;14.32;;;;;;;;;;5089943;28;20036;-59
2023/08/06 04:15:18;;;;;;;24.20;14.77;;;;;;;;;;5091561;28;20044;-59
2023/08/06 04:17:44;;;;;;;23.45;14.50;;;;;;;;;;5091453;28;20052;-59
2023/08/06 04:20:10;;;;;;;22.70;13.65;;;;;;;;;;5091625;28;20032;-58
2023/08/06 04:22:36;;;;;;;22.70;14.48;;;;;;;;;;5089878;28;20071;-59
2023/08/06 04:25:03;;;;;;;26.73;15.27;;;;;;;;;;5091899;28;20048;-58
2023/08/06 04:27:29;;;;;;;22.15;13.65;;;;;;;;;;5092450;28;20032;-58
2023/08/06 04:29:55;;;;;;;22.42;15.45;;;;;;;;;;5092263;28;20067;-59
2023/08/06 04:32:21;;;;;;;25.23;15.93;;;;;;;;;;5091586;28;20044;-59
2023/08/06 04:34:47;;;;;;;26.40;15.73;;;;;;;;;;5092377;28;20071;-58
2023/08/06 04:37:14;;;;;;;24.58;17.38;;;;;;;;;;5088808;28;20048;-59
2023/08/06 04:39:40;;;;;;;24.05;15.75;;;;;;;;;;5092219;28;20043;-59
2023/08/06 04:42:06;;;;;;;26.10;15.18;;;;;;;;;;5088742;28;20155;-60
2023/08/06 04:44:32;;;;;;;23.25;14.88;;;;;;;;;;5091674;28;20105;-59
2023/08/06 04:46:59;;;;;;;24.05;15.90;;;;;;;;;;5092772;28;20364;-59
2023/08/06 04:49:25;;;;;;;22.05;14.63;;;;;;;;;;5093309;28;20048;-59
2023/08/06 04:51:51;;;;;;;23.83;14.82;;;;;;;;;;5092598;28;20452;-59
2023/08/06 04:54:18;;;;;;;21.70;15.63;;;;;;;;;;5093688;28;20465;-59
2023/08/06 04:56:44;;;;;;;25.60;16.35;;;;;;;;;;5091184;28;20036;-59
2023/08/06 04:59:10;;;;;;;22.88;14.68;;;;;;;;;;5093188;28;20063;-58
2023/08/06 05:01:36;;;;;;;23.33;15.88;;;;;;;;;;5092677;28;20048;-59
2023/08/06 05:04:02;;;;;;;25.92;15.93;;;;;;;;;;5093237;28;20062;-59
2023/08/06 05:06:28;;;;;;;22.23;15.18;;;;;;;;;;5109679;28;20054;-59
2023/08/06 05:08:55;;;;;;;25.88;15.75;;;;;;;;;;5093618;28;20043;-59
2023/08/06 05:11:21;;;;;;;24.30;15.88;;;;;;;;;;5092313;28;20457;-59
2023/08/06 05:13:47;;;;;;;23.10;15.25;;;;;;;;;;5093075;28;20489;-59
2023/08/06 05:16:13;;;;;;;26.70;15.30;;;;;;;;;;5092128;28;20105;-59
2023/08/06 05:18:40;;;;;;;24.58;15.73;;;;;;;;;;5074421;28;20455;-58
2023/08/06 05:21:06;;;;;;;24.23;16.25;;;;;;;;;;5095394;28;20140;-59
2023/08/06 05:23:33;;;;;;;23.98;16.58;;;;;;;;;;5106180;28;20387;-58
2023/08/06 05:25:59;;;;;;;25.55;16.23;;;;;;;;;;5091844;28;20071;-59
2023/08/06 05:28:25;;;;;;;22.45;14.77;;;;;;;;;;5093176;28;20142;-59
2023/08/06 05:30:51;;;;;;;23.50;16.10;;;;;;;;;;5092437;28;20070;-59
2023/08/06 05:33:17;;;;;;;20.90;15.63;;;;;;;;;;5092596;28;20047;-59
2023/08/06 05:35:43;;;;;;;24.10;15.77;;;;;;;;;;5092592;28;20502;-59
2023/08/06 05:38:10;;;;;;;22.48;16.00;;;;;;;;;;5097915;28;20127;-58
2023/08/06 05:40:36;;;;;;;23.75;15.57;;;;;;;;;;5091440;28;20513;-59
2023/08/06 05:43:02;;;;;;;23.30;16.23;;;;;;;;;;5093284;28;20040;-59
2023/08/06 05:45:28;;;;;;;22.08;15.55;;;;;;;;;;5091521;28;20085;-59
2023/08/06 05:47:57;;;;;;;25.08;16.83;;;;;;;;;;5090006;28;20679;-59
2023/08/06 05:50:24;;;;;;;21.13;15.85;;;;;;;;;;5092128;28;20115;-59
2023/08/06 05:52:50;;;;;;;21.13;15.40;;;;;;;;;;5092228;28;20039;-59
2023/08/06 05:55:16;;;;;;;23.25;16.63;;;;;;;;;;5078655;28;20111;-59
2023/08/06 05:57:42;;;;;;;21.98;15.95;;;;;;;;;;5090155;28;20122;-58
2023/08/06 06:00:09;;;;;;;20.27;15.52;;;;;;;;;;5089864;28;20110;-59
2023/08/06 06:02:35;;;;;;;20.52;14.90;;;;;;;;;;5101663;28;20480;-59
2023/08/06 06:05:01;;;;;;;19.65;14.15;;;;;;;;;;5096017;28;20036;-59
2023/08/06 06:07:27;;;;;;;19.13;14.13;;;;;;;;;;5092035;28;20044;-59
2023/08/06 06:09:54;;;;;;;20.38;14.77;;;;;;;;;;5090591;28;20492;-59
2023/08/06 06:12:22;;;;;;;18.77;13.35;;;;;;;;;;5092421;28;20044;-59
2023/08/06 06:14:48;;;;;;;18.13;13.32;;;;;;;;;;5090086;28;20093;-62
2023/08/06 06:17:14;;;;;;;22.08;13.23;;;;;;;;;;5090274;28;20179;-59
2023/08/06 06:19:40;;;;;;;21.60;13.93;;;;;;;;;;5093372;28;20040;-59
2023/08/06 06:22:07;;;;;;;20.17;14.23;;;;;;;;;;5082237;28;20524;-60
2023/08/06 06:24:33;;;;;;;16.10;12.55;;;;;;;;;;5090789;28;20043;-59
2023/08/06 06:26:59;;;;;;;18.52;13.77;;;;;;;;;;5088266;28;20059;-59
2023/08/06 06:29:25;;;;;;;20.30;12.88;;;;;;;;;;5087250;28;20520;-59
2023/08/06 06:31:51;;;;;;;15.93;12.57;;;;;;;;;;5091289;28;20040;-59
2023/08/06 06:34:18;;;;;;;18.48;13.73;;;;;;;;;;5101945;28;20044;-59
2023/08/06 06:36:44;;;;;;;17.02;12.88;;;;;;;;;;5091397;28;20056;-59
2023/08/06 06:39:10;;;;;;;17.52;12.98;;;;;;;;;;5097467;28;20127;-59
2023/08/06 06:41:36;;;;;;;15.13;11.77;;;;;;;;;;5096380;28;20506;-59
2023/08/06 06:44:02;;;;;;;14.77;11.95;;;;;;;;;;5104077;28;20042;-59
2023/08/06 06:46:29;;;;;;;16.33;12.50;;;;;;;;;;5090675;28;20126;-59
2023/08/06 06:48:55;;;;;;;14.57;11.25;;;;;;;;;;5080321;28;20408;-59
2023/08/06 06:51:21;;;;;;;19.77;11.13;;;;;;;;;;5091859;28;20055;-58
2023/08/06 06:53:47;;;;;;;14.40;11.48;;;;;;;;;;5100875;28;20504;-59
2023/08/06 06:56:13;;;;;;;13.70;10.00;;;;;;;;;;5094119;28;20391;-59
2023/08/06 06:58:40;;;;;;;12.75;9.32;;;;;;;;;;5095649;28;20475;-59
2023/08/06 07:01:07;;;;;;;13.88;10.50;;;;;;;;;;5091657;28;20044;-59
2023/08/06 07:03:33;;;;;;;12.25;9.95;;;;;;;;;;5099284;28;20048;-59
2023/08/06 07:06:00;;;;;;;13.85;10.77;;;;;;;;;;5088986;28;20051;-59
2023/08/06 07:08:26;;;;;;;14.85;9.90;;;;;;;;;;5089907;28;20047;-59
2023/08/06 07:11:00;;;;;;;14.50;9.52;;;;;;;;;;5090726;28;20399;-59
2023/08/06 07:13:26;;;;;;;12.82;8.80;;;;;;;;;;5090678;28;20442;-59
2023/08/06 07:15:52;;;;;;;12.27;8.38;;;;;;;;;;5090345;28;20043;-59
2023/08/06 07:18:18;;;;;;;10.95;7.65;;;;;;;;;;5092369;28;20055;-59
2023/08/06 07:20:48;;;;;;;8.52;6.97;;;;;;;;;;5091330;28;20104;-59
2023/08/06 07:23:15;;;;;;;8.82;6.75;;;;;;;;;;5091169;28;20478;-59
2023/08/06 07:25:41;;;;;;;10.05;6.78;;;;;;;;;;5089299;28;20069;-59
2023/08/06 07:28:07;;;;;;;8.95;7.38;;;;;;;;;;5091354;28;20776;-59
2023/08/06 07:30:33;;;;;;;9.35;6.95;;;;;;;;;;5096570;28;20109;-59
2023/08/06 07:33:00;;;;;;;12.25;6.88;;;;;;;;;;5089821;28;20054;-60
2023/08/06 07:35:29;;;;;;;12.80;7.30;;;;;;;;;;5088852;28;20329;-60
2023/08/06 07:37:55;;;;;;;10.13;7.82;;;;;;;;;;5089302;28;20040;-59
2023/08/06 07:40:21;;;;;;;15.05;8.38;;;;;;;;;;5088719;28;20498;-59
2023/08/06 07:42:47;;;;;;;10.40;8.48;;;;;;;;;;5092957;28;20039;-59
2023/08/06 07:45:14;;;;;;;10.55;7.68;;;;;;;;;;5098755;28;20813;-59
2023/08/06 07:47:42;;;;;;;12.07;7.63;;;;;;;;;;5090665;28;20420;-59
2023/08/06 07:50:10;;;;;;;11.43;8.07;;;;;;;;;;5095282;28;20117;-59
2023/08/06 07:52:36;;;;;;;8.88;6.97;;;;;;;;;;5087728;28;20066;-59
2023/08/06 07:55:04;;;;;;;10.45;6.68;;;;;;;;;;5090509;28;20384;-59
2023/08/06 07:57:31;;;;;;;10.32;7.15;;;;;;;;;;5088955;28;20044;-59
2023/08/06 07:59:58;;;;;;;10.18;6.65;;;;;;;;;;5095361;28;20040;-59
2023/08/06 08:02:24;;;;;;;8.82;6.45;;;;;;;;;;5089413;28;20451;-59
2023/08/06 08:04:50;;;;;;;9.02;6.97;;;;;;;;;;5090670;28;20047;-59
2023/08/06 08:07:16;;;;;;;9.10;6.00;;;;;;;;;;5089202;28;20048;-59
2023/08/06 08:09:42;;;;;;;8.35;6.20;;;;;;;;;;5087218;28;20040;-59
2023/08/06 08:12:09;;;;;;;8.93;5.93;;;;;;;;;;5096996;28;20475;-59
2023/08/06 08:14:36;;;;;;;11.07;7.40;;;;;;;;;;5089909;28;20070;-59
2023/08/06 08:17:03;;;;;;;9.13;5.57;;;;;;;;;;5088083;28;20076;-59
2023/08/06 08:19:30;;;;;;;10.50;5.50;;;;;;;;;;5089595;28;20051;-59
2023/08/06 08:21:56;;;;;;;7.38;5.88;;;;;;;;;;5089728;28;20044;-59
2023/08/06 08:24:25;;;;;;;6.80;4.53;;;;;;;;;;5090450;28;20128;-59
2023/08/06 08:26:54;;;;;;;7.07;5.72;;;;;;;;;;5089660;28;20059;-59
2023/08/06 08:29:21;;;;;;;8.23;4.82;;;;;;;;;;5083260;28;20449;-59
2023/08/06 08:31:49;;;;;;;10.80;5.25;;;;;;;;;;5090402;28;20042;-59
2023/08/06 08:34:16;;;;;;;8.05;4.55;;;;;;;;;;5089549;28;20119;-59
2023/08/06 08:36:42;;;;;;;5.93;4.10;;;;;;;;;;5088245;28;20036;-60
2023/08/06 08:39:09;;;;;;;9.45;5.07;;;;;;;;;;5093909;28;20047;-58
2023/08/06 08:41:36;;;;;;;7.05;4.20;;;;;;;;;;5093217;28;20239;-59
2023/08/06 08:44:03;;;;;;;6.18;3.90;;;;;;;;;;5087936;28;20055;-59
2023/08/06 08:46:33;;;;;;;8.00;4.85;;;;;;;;;;5089984;28;20042;-59
2023/08/06 08:48:59;;;;;;;9.23;4.20;;;;;;;;;;5089205;28;20486;-59
2023/08/06 08:51:29;;;;;;;8.15;4.40;;;;;;;;;;5092321;28;20056;-59
2023/08/06 08:53:57;;;;;;;6.13;3.25;;;;;;;;;;5092132;28;20040;-59
2023/08/06 08:56:23;;;;;;;6.43;3.58;;;;;;;;;;5091428;28;20052;-59
2023/08/06 08:58:50;;;;;;;8.82;3.88;;;;;;;;;;5093423;28;20046;-59
2023/08/06 09:01:16;;;;;;;5.53;3.13;;;;;;;;;;5093560;28;20051;-59
2023/08/06 09:03:44;;;;;;;7.30;2.60;;;;;;;;;;5091236;28;20353;-59
2023/08/06 09:06:11;;;;;;;6.30;2.80;;;;;;;;;;5093518;28;20060;-59
2023/08/06 09:08:40;;;;;;;5.13;2.88;;;;;;;;;;5092128;28;20079;-59
2023/08/06 09:11:10;;;;;;;5.95;2.95;;;;;;;;;;5092906;28;20032;-59
2023/08/06 09:13:38;;;;;;;5.20;3.13;;;;;;;;;;5092883;28;20423;-59
2023/08/06 09:16:05;;;;;;;4.47;2.78;;;;;;;;;;5093138;28;20072;-59
2023/08/06 09:18:31;;;;;;;4.90;2.60;;;;;;;;;;5092199;28;20181;-59
2023/08/06 09:20:58;;;;;;;4.03;2.60;;;;;;;;;;5093375;28;20469;-59
2023/08/06 09:23:33;;;;;;;5.10;2.40;;;;;;;;;;5092049;28;20068;-59
2023/08/06 09:26:01;;;;;;;3.97;2.30;;;;;;;;;;5079486;28;20055;-60
2023/08/06 09:28:43;;;;;;;5.80;2.65;;;;;;;;;;5090199;28;20075;-60
2023/08/06 09:31:10;;;;;;;4.90;2.50;;;;;;;;;;5101472;28;20387;-60
2023/08/06 09:33:37;;;;;;;4.25;2.00;;;;;;;;;;5092438;28;20189;-60
2023/08/06 09:36:10;;;;;;;4.45;2.55;;;;;;;;;;5092626;28;20064;-60
2023/08/06 09:38:40;;;;;;;3.40;2.00;;;;;;;;;;5092132;28;20440;-60
2023/08/06 09:41:07;;;;;;;5.13;1.85;;;;;;;;;;5092813;28;20082;-60
2023/08/06 09:43:43;;;;;;;6.85;2.13;;;;;;;;;;5093093;28;20136;-60
2023/08/06 09:46:16;;;;;;;3.60;1.88;;;;;;;;;;5090490;28;20040;-60
2023/08/06 09:48:45;;;;;;;3.17;1.83;;;;;;;;;;5092886;28;20127;-60
2023/08/06 09:51:12;;;;;;;4.63;1.77;;;;;;;;;;5092126;28;20040;-60
2023/08/06 09:53:39;;;;;;;4.85;2.13;;;;;;;;;;5090760;28;20085;-60
2023/08/06 09:56:05;;;;;;;3.97;1.92;;;;;;;;;;5091897;28;20422;-60
2023/08/06 09:58:32;;;;;;;4.55;2.28;;;;;;;;;;5092336;28;20051;-60
2023/08/06 10:00:59;;;;;;;7.38;2.20;;;;;;;;;;5091396;28;20399;-60
2023/08/06 10:03:26;;;;;;;4.95;1.77;;;;;;;;;;5092210;28;20132;-60
2023/08/06 10:05:52;;;;;;;3.72;2.22;;;;;;;;;;5092013;28;20071;-60
2023/08/06 10:08:18;;;;;;;5.38;2.00;;;;;;;;;;5092058;28;20051;-60
2023/08/06 10:10:45;;;;;;;3.03;1.80;;;;;;;;;;5092586;28;20062;-60
2023/08/06 10:13:12;;;;;;;3.40;1.65;;;;;;;;;;5091976;28;20063;-60
2023/08/06 10:15:38;;;;;;;4.43;2.00;;;;;;;;;;5089974;28;20044;-60
2023/08/06 10:18:05;;;;;;;3.83;1.90;;;;;;;;;;5092351;28;20032;-60
2023/08/06 10:20:35;;;;;;;5.22;2.45;;;;;;;;;;5091528;28;20044;-60
2023/08/06 10:23:05;;;;;;;5.63;2.42;;;;;;;;;;5092295;28;20407;-60
2023/08/06 10:25:35;;;;;;;8.13;2.80;;;;;;;;;;5092192;28;20055;-60
2023/08/06 10:28:08;;;;;;;5.55;2.50;;;;;;;;;;5090523;28;20039;-60
2023/08/06 10:30:34;;;;;;;5.93;2.38;;;;;;;;;;5087403;28;20039;-60
2023/08/06 10:33:01;;;;;;;5.25;2.55;;;;;;;;;;5090861;28;20047;-60
2023/08/06 10:35:32;;;;;;;4.63;2.35;;;;;;;;;;5090711;28;20051;-60
2023/08/06 10:38:09;;;;;;;4.18;2.30;;;;;;;;;;5091710;28;20048;-60
2023/08/06 10:40:37;;;;;;;4.22;2.10;;;;;;;;;;5091818;28;20131;-60
2023/08/06 10:43:04;;;;;;;4.82;2.38;;;;;;;;;;5091500;28;20123;-60
2023/08/06 10:45:30;;;;;;;7.55;2.42;;;;;;;;;;5089044;28;20036;-60
2023/08/06 10:47:58;;;;;;;8.77;2.90;;;;;;;;;;5087584;28;20054;-60
2023/08/06 10:50:24;;;;;;;7.07;2.75;;;;;;;;;;5090411;28;20050;-60
2023/08/06 10:52:51;;;;;;;5.13;2.58;;;;;;;;;;5091117;28;20036;-59
2023/08/06 10:55:27;;;;;;;7.72;3.20;;;;;;;;;;5085974;28;20036;-60
2023/08/06 10:57:54;;;;;;;4.15;2.50;;;;;;;;;;5089978;28;20476;-59
2023/08/06 11:00:22;;;;;;;6.30;2.72;;;;;;;;;;5091528;28;20123;-60
2023/08/06 11:02:49;;;;;;;6.00;3.35;;;;;;;;;;5089903;28;20044;-60
2023/08/06 11:05:15;;;;;;;4.93;3.15;;;;;;;;;;5091597;28;20066;-60
2023/08/06 11:07:42;;;;;;;6.30;3.00;;;;;;;;;;5090546;28;20044;-60
2023/08/06 11:10:09;;;;;;;7.70;3.47;;;;;;;;;;5089552;28;20032;-60
2023/08/06 11:12:36;;;;;;;6.75;3.10;;;;;;;;;;5090702;28;20153;-60
2023/08/06 11:15:03;;;;;;;5.03;2.83;;;;;;;;;;5091225;28;20450;-60
2023/08/06 11:17:29;;;;;;;7.63;3.33;;;;;;;;;;5089858;28;20119;-60
2023/08/06 11:19:56;;;;;;;6.30;3.47;;;;;;;;;;5089998;28;20050;-60
2023/08/06 11:22:22;;;;;;;6.90;4.30;;;;;;;;;;5091063;28;20054;-60
2023/08/06 11:24:49;;;;;;;7.32;3.83;;;;;;;;;;5092682;28;20408;-60
2023/08/06 11:27:16;;;;;;;5.97;3.88;;;;;;;;;;5092019;28;20508;-60
2023/08/06 11:29:42;;;;;;;6.50;3.97;;;;;;;;;;5088197;28;20124;-60
2023/08/06 11:32:09;;;;;;;8.40;4.45;;;;;;;;;;5090381;28;20044;-60
2023/08/06 11:34:36;;;;;;;6.80;3.63;;;;;;;;;;5091494;28;20075;-59
2023/08/06 11:37:05;;;;;;;7.22;3.90;;;;;;;;;;5069594;28;20165;-59
2023/08/06 11:39:33;;;;;;;5.85;3.20;;;;;;;;;;5081705;28;20049;-59
2023/08/06 11:42:02;;;;;;;6.50;3.05;;;;;;;;;;5087061;28;20079;-59
2023/08/06 11:44:32;;;;;;;4.50;2.53;;;;;;;;;;5085785;28;20084;-59
2023/08/06 11:47:01;;;;;;;7.95;3.70;;;;;;;;;;5094922;28;20189;-59
2023/08/06 11:49:47;;;;;;;7.03;3.10;;;;;;;;;;5091605;28;20036;-59
2023/08/06 11:52:22;;;;;;;8.02;3.40;;;;;;;;;;5077368;28;20097;-59
2023/08/06 11:55:02;;;;;;;10.07;3.78;;;;;;;;;;5090279;28;20062;-59
2023/08/06 11:57:32;;;;;;;4.80;2.92;;;;;;;;;;5080495;28;20040;-59
2023/08/06 12:00:02;;;;;;;6.72;3.42;;;;;;;;;;5087642;28;20036;-59
2023/08/06 12:02:33;;;;;;;4.97;2.67;;;;;;;;;;5096675;28;20048;-59
2023/08/06 12:05:11;;;;;;;6.22;2.80;;;;;;;;;;5100335;28;20044;-59
2023/08/06 12:07:38;;;;;;;5.70;2.40;;;;;;;;;;5101117;28;20085;-59
2023/08/06 12:10:04;;;;;;;4.70;2.63;;;;;;;;;;5097872;28;20047;-59
2023/08/06 12:12:31;;;;;;;5.63;2.70;;;;;;;;;;5087261;28;20881;-59
2023/08/06 12:14:57;;;;;;;5.68;2.60;;;;;;;;;;5090539;28;20484;-59
2023/08/06 12:17:24;;;;;;;5.80;2.53;;;;;;;;;;5076665;28;20043;-59
2023/08/06 12:19:51;;;;;;;7.10;2.35;;;;;;;;;;5089691;28;20047;-59
2023/08/06 12:22:17;;;;;;;6.10;2.45;;;;;;;;;;5090686;28;20127;-59
2023/08/06 12:24:44;;;;;;;4.45;2.15;;;;;;;;;;5091606;28;20047;-59
2023/08/06 12:27:10;;;;;;;5.97;2.70;;;;;;;;;;5093846;28;20391;-59
2023/08/06 12:29:38;;;;;;;6.93;2.67;;;;;;;;;;5106218;28;20048;-59
2023/08/06 12:32:04;;;;;;;6.68;2.42;;;;;;;;;;5094164;28;20087;-59
2023/08/06 12:34:30;;;;;;;4.05;2.08;;;;;;;;;;5093569;28;20040;-59
2023/08/06 12:36:57;;;;;;;4.00;1.92;;;;;;;;;;5093753;28;20097;-60
2023/08/06 12:39:23;;;;;;;3.75;2.03;;;;;;;;;;5093121;28;20463;-59
2023/08/06 12:41:50;;;;;;;4.78;2.22;;;;;;;;;;5090886;28;20054;-60
2023/08/06 12:44:16;;;;;;;4.32;2.13;;;;;;;;;;5090739;28;20452;-59
2023/08/06 12:46:43;;;;;;;5.45;2.15;;;;;;;;;;5091479;28;20040;-60
2023/08/06 12:49:09;;;;;;;3.72;2.15;;;;;;;;;;5093175;28;20469;-59
2023/08/06 12:51:35;;;;;;;5.35;2.30;;;;;;;;;;5096605;28;20040;-60
2023/08/06 12:54:01;;;;;;;5.43;2.03;;;;;;;;;;5099790;28;20040;-59
2023/08/06 12:56:28;;;;;;;4.88;2.15;;;;;;;;;;5092967;28;20507;-60
2023/08/06 12:58:55;;;;;;;5.00;2.78;;;;;;;;;;5093907;28;20159;-59
2023/08/06 13:01:21;;;;;;;4.45;2.10;;;;;;;;;;5097329;28;20044;-59
2023/08/06 13:03:47;;;;;;;4.10;2.50;;;;;;;;;;5092971;28;20047;-59
2023/08/06 13:06:13;;;;;;;4.20;2.20;;;;;;;;;;5094545;28;20123;-59
2023/08/06 13:08:40;;;;;;;3.95;2.22;;;;;;;;;;5093784;28;20098;-60
2023/08/06 13:11:06;;;;;;;4.70;2.20;;;;;;;;;;5093673;28;20040;-60
2023/08/06 13:13:32;;;;;;;6.53;2.20;;;;;;;;;;5093516;28;20124;-59
2023/08/06 13:15:58;;;;;;;4.28;2.00;;;;;;;;;;5091637;28;20043;-59
2023/08/06 13:18:24;;;;;;;3.83;2.17;;;;;;;;;;5099066;28;20063;-59
2023/08/06 13:20:54;;;;;;;4.25;2.17;;;;;;;;;;5093637;28;20068;-59
2023/08/06 13:23:20;;;;;;;7.15;2.42;;;;;;;;;;5091474;28;20040;-59
2023/08/06 13:25:46;;;;;;;2.70;1.60;;;;;;;;;;5091885;28;20036;-60
2023/08/06 13:28:13;;;;;;;3.25;1.75;;;;;;;;;;5093907;28;20036;-59
2023/08/06 13:30:42;;;;;;;4.70;2.10;;;;;;;;;;5092827;28;20055;-59
2023/08/06 13:33:12;;;;;;;3.85;1.80;;;;;;;;;;5093469;28;20040;-60
2023/08/06 13:35:38;;;;;;;5.50;1.92;;;;;;;;;;5092418;28;20056;-59
2023/08/06 13:38:05;;;;;;;4.68;1.48;;;;;;;;;;5091229;28;20059;-60
2023/08/06 13:40:34;;;;;;;4.05;1.80;;;;;;;;;;5092881;28;20492;-60
2023/08/06 13:43:01;;;;;;;5.10;1.90;;;;;;;;;;5093027;28;20052;-60
2023/08/06 13:45:27;;;;;;;3.22;1.63;;;;;;;;;;5090461;28;20229;-59
2023/08/06 13:47:56;;;;;;;3.50;1.67;;;;;;;;;;5102031;28;20344;-60
2023/08/06 13:50:25;;;;;;;3.88;1.73;;;;;;;;;;5091492;28;20131;-59
2023/08/06 13:52:53;;;;;;;3.67;1.60;;;;;;;;;;5091257;28;20043;-59
2023/08/06 13:55:19;;;;;;;5.20;1.80;;;;;;;;;;5079007;28;20405;-59
2023/08/06 13:57:45;;;;;;;4.07;1.60;;;;;;;;;;5091976;28;20055;-59
2023/08/06 14:00:11;;;;;;;3.42;1.67;;;;;;;;;;5090889;28;20043;-59
2023/08/06 14:02:38;;;;;;;3.72;1.80;;;;;;;;;;5092423;28;20075;-60
2023/08/06 14:05:05;;;;;;;4.22;2.00;;;;;;;;;;5091748;28;20048;-60
2023/08/06 14:07:31;;;;;;;4.05;1.73;;;;;;;;;;5091275;28;20044;-59
2023/08/06 14:09:58;;;;;;;4.15;1.80;;;;;;;;;;5092383;28;20071;-59
2023/08/06 14:12:24;;;;;;;3.97;1.73;;;;;;;;;;5090018;28;20051;-59
2023/08/06 14:14:50;;;;;;;3.67;1.98;;;;;;;;;;5096019;28;20035;-60
2023/08/06 14:17:16;;;;;;;3.45;1.90;;;;;;;;;;5093016;28;20059;-60
2023/08/06 14:19:43;;;;;;;5.30;1.60;;;;;;;;;;5091654;28;20032;-60
2023/08/06 14:22:09;;;;;;;3.28;1.52;;;;;;;;;;5094256;28;20051;-59
2023/08/06 14:24:35;;;;;;;4.53;1.50;;;;;;;;;;5093702;28;20164;-59
2023/08/06 14:27:03;;;;;;;3.35;1.60;;;;;;;;;;5094987;28;20044;-60